FDX335 EGCC-EKVG
Flight info
| Callsign | FDX335 |
|---|---|
| Flight time | N/A |
| Altitude | 24000 |
| Route | POL N601 GRICE/N0467F320 DCT NESDI DCT ADASI DCT DOSUN/M081F320 DCT SUDUR |
| Aircraft | B77L/H-SDE1E2E3FGHIJ2J3J4J5M1RWXY/LB1D1 |
Departure
| Time | 2026-05-07 19:12 |
|---|---|
| Airport | Manchester Airport (EGCC) |
Arrival
| Time | N/A |
|---|---|
| Airport | Vágar Airport (EKVG) |
| Time | Latitude | Longitude | Altitude | Speed | Heading |
|---|---|---|---|---|---|
| 2026-05-07 18:55 | 53.36398 | -2.28604 | 252 ft | 0 kts | 225° |
| 2026-05-07 19:01 | 53.36406 | -2.28591 | 252 ft | 3 kts | 225° |
| 2026-05-07 19:01 | 53.36420 | -2.28571 | 252 ft | 3 kts | 194° |
| 2026-05-07 19:01 | 53.36439 | -2.28570 | 252 ft | 3 kts | 153° |
| 2026-05-07 19:02 | 53.36445 | -2.28575 | 252 ft | 0 kts | 139° |
| 2026-05-07 19:02 | 53.36444 | -2.28574 | 252 ft | 0 kts | 139° |
| 2026-05-07 19:02 | 53.36443 | -2.28573 | 252 ft | 0 kts | 139° |
| 2026-05-07 19:02 | 53.36441 | -2.28569 | 252 ft | 0 kts | 139° |
| 2026-05-07 19:03 | 53.36438 | -2.28566 | 252 ft | 1 kts | 139° |
| 2026-05-07 19:03 | 53.36435 | -2.28561 | 252 ft | 1 kts | 139° |
| 2026-05-07 19:03 | 53.36431 | -2.28555 | 252 ft | 1 kts | 139° |
| 2026-05-07 19:03 | 53.36371 | -2.28481 | 252 ft | 15 kts | 146° |
| 2026-05-07 19:04 | 53.36291 | -2.28375 | 252 ft | 15 kts | 136° |
| 2026-05-07 19:04 | 53.36217 | -2.28255 | 252 ft | 15 kts | 135° |
| 2026-05-07 19:04 | 53.36144 | -2.28133 | 252 ft | 15 kts | 134° |
| 2026-05-07 19:04 | 53.36073 | -2.28010 | 252 ft | 15 kts | 134° |
| 2026-05-07 19:05 | 53.36008 | -2.27904 | 252 ft | 13 kts | 138° |
| 2026-05-07 19:05 | 53.35925 | -2.27852 | 252 ft | 13 kts | 178° |
| 2026-05-07 19:05 | 53.35846 | -2.27790 | 252 ft | 13 kts | 135° |
| 2026-05-07 19:05 | 53.35786 | -2.27688 | 252 ft | 8 kts | 149° |
| 2026-05-07 19:06 | 53.35734 | -2.27647 | 252 ft | 8 kts | 154° |
| 2026-05-07 19:06 | 53.35634 | -2.27526 | 253 ft | 10 kts | 117° |
| 2026-05-07 19:06 | 53.35644 | -2.27418 | 257 ft | 11 kts | 62° |
| 2026-05-07 19:07 | 53.35695 | -2.27302 | 257 ft | 14 kts | 48° |
| 2026-05-07 19:07 | 53.35759 | -2.27165 | 257 ft | 16 kts | 51° |
| 2026-05-07 19:07 | 53.35824 | -2.27019 | 257 ft | 15 kts | 58° |
| 2026-05-07 19:07 | 53.35853 | -2.26944 | 258 ft | 2 kts | 57° |
| 2026-05-07 19:08 | 53.35863 | -2.26918 | 258 ft | 4 kts | 54° |
| 2026-05-07 19:08 | 53.35897 | -2.26843 | 258 ft | 18 kts | 53° |
| 2026-05-07 19:08 | 53.35954 | -2.26713 | 258 ft | 12 kts | 54° |
| 2026-05-07 19:08 | 53.36002 | -2.26607 | 258 ft | 12 kts | 51° |
| 2026-05-07 19:09 | 53.36052 | -2.26502 | 258 ft | 12 kts | 52° |
| 2026-05-07 19:09 | 53.36105 | -2.26394 | 256 ft | 13 kts | 51° |
| 2026-05-07 19:09 | 53.36162 | -2.26279 | 256 ft | 13 kts | 46° |
| 2026-05-07 19:09 | 53.36226 | -2.26178 | 254 ft | 12 kts | 45° |
| 2026-05-07 19:10 | 53.36264 | -2.26065 | 255 ft | 5 kts | 82° |
| 2026-05-07 19:10 | 53.36269 | -2.26010 | 256 ft | 5 kts | 78° |
| 2026-05-07 19:10 | 53.36279 | -2.25945 | 257 ft | 7 kts | 74° |
| 2026-05-07 19:10 | 53.36285 | -2.25863 | 260 ft | 7 kts | 92° |
| 2026-05-07 19:11 | 53.36264 | -2.25790 | 264 ft | 7 kts | 135° |
| 2026-05-07 19:11 | 53.36196 | -2.25803 | 263 ft | 17 kts | 221° |
| 2026-05-07 19:11 | 53.36179 | -2.25833 | 263 ft | 0 kts | 228° |
| 2026-05-07 19:12 | 53.36113 | -2.25967 | 263 ft | 54 kts | 231° |
| 2026-05-07 19:12 | 53.35653 | -2.26920 | 270 ft | 155 kts | 231° |
| 2026-05-07 19:12 | 53.34825 | -2.28619 | 625 ft | 205 kts | 230° |
| 2026-05-07 19:12 | 53.33915 | -2.30575 | 1593 ft | 220 kts | 231° |
| 2026-05-07 19:13 | 53.33017 | -2.32679 | 2837 ft | 223 kts | 232° |
| 2026-05-07 19:13 | 53.32205 | -2.34996 | 3398 ft | 243 kts | 250° |
| 2026-05-07 19:13 | 53.32214 | -2.37876 | 4152 ft | 260 kts | 287° |
| 2026-05-07 19:13 | 53.33247 | -2.40417 | 4859 ft | 274 kts | 319° |
| 2026-05-07 19:14 | 53.34968 | -2.41765 | 5022 ft | 282 kts | 345° |
| 2026-05-07 19:14 | 53.36890 | -2.42430 | 5032 ft | 282 kts | 345° |
| 2026-05-07 19:14 | 53.38797 | -2.43300 | 5044 ft | 284 kts | 342° |
| 2026-05-07 19:14 | 53.40690 | -2.44251 | 5082 ft | 284 kts | 341° |
| 2026-05-07 19:15 | 53.42577 | -2.45224 | 5795 ft | 283 kts | 340° |
| 2026-05-07 19:15 | 53.44457 | -2.46198 | 6879 ft | 281 kts | 341° |
| 2026-05-07 19:15 | 53.46366 | -2.46705 | 7641 ft | 289 kts | 4° |
| 2026-05-07 19:15 | 53.48252 | -2.45505 | 8405 ft | 296 kts | 38° |
| 2026-05-07 19:16 | 53.49757 | -2.43163 | 9195 ft | 297 kts | 42° |
| 2026-05-07 19:16 | 53.51370 | -2.40894 | 9917 ft | 305 kts | 38° |
| 2026-05-07 19:16 | 53.53070 | -2.38674 | 10668 ft | 315 kts | 37° |
| 2026-05-07 19:16 | 53.54884 | -2.36314 | 10919 ft | 343 kts | 38° |
| 2026-05-07 19:17 | 53.56835 | -2.33741 | 11154 ft | 370 kts | 38° |
| 2026-05-07 19:17 | 53.58910 | -2.30987 | 11637 ft | 387 kts | 38° |
| 2026-05-07 19:17 | 53.61024 | -2.28175 | 12416 ft | 395 kts | 38° |
| 2026-05-07 19:17 | 53.63199 | -2.25279 | 13342 ft | 401 kts | 39° |
| 2026-05-07 19:18 | 53.65396 | -2.22350 | 14210 ft | 405 kts | 39° |
| 2026-05-07 19:18 | 53.67616 | -2.19386 | 15064 ft | 409 kts | 39° |
| 2026-05-07 19:18 | 53.69860 | -2.16387 | 15879 ft | 413 kts | 39° |
| 2026-05-07 19:18 | 53.72191 | -2.13582 | 16452 ft | 414 kts | 28° |
| 2026-05-07 19:19 | 53.74963 | -2.12167 | 16884 ft | 422 kts | 2° |
| 2026-05-07 19:19 | 53.77865 | -2.12685 | 17801 ft | 419 kts | 342° |
| 2026-05-07 19:19 | 53.80575 | -2.14396 | 18573 ft | 416 kts | 334° |
| 2026-05-07 19:19 | 53.83264 | -2.16368 | 19070 ft | 425 kts | 335° |
| 2026-05-07 19:20 | 53.86017 | -2.18302 | 19692 ft | 430 kts | 335° |
| 2026-05-07 19:20 | 53.88803 | -2.20222 | 20418 ft | 433 kts | 336° |
| 2026-05-07 19:20 | 53.91607 | -2.22139 | 21147 ft | 435 kts | 336° |
| 2026-05-07 19:20 | 53.94393 | -2.24045 | 21810 ft | 439 kts | 336° |
| 2026-05-07 19:21 | 53.97247 | -2.26003 | 22436 ft | 444 kts | 336° |
| 2026-05-07 19:21 | 54.00118 | -2.27978 | 23033 ft | 449 kts | 336° |
| 2026-05-07 19:21 | 54.03033 | -2.29988 | 23636 ft | 454 kts | 336° |
| 2026-05-07 19:21 | 54.05978 | -2.32024 | 24061 ft | 458 kts | 336° |
| 2026-05-07 19:22 | 54.08952 | -2.34085 | 23988 ft | 461 kts | 336° |
| 2026-05-07 19:22 | 54.11875 | -2.36110 | 24017 ft | 457 kts | 336° |
| 2026-05-07 19:22 | 54.14818 | -2.38152 | 24004 ft | 455 kts | 336° |
| 2026-05-07 19:22 | 54.17749 | -2.40189 | 24017 ft | 455 kts | 336° |
| 2026-05-07 19:23 | 54.20691 | -2.42228 | 24018 ft | 456 kts | 336° |
| 2026-05-07 19:23 | 54.23636 | -2.44269 | 24031 ft | 457 kts | 336° |
| 2026-05-07 19:23 | 54.26585 | -2.46316 | 24016 ft | 458 kts | 336° |
| 2026-05-07 19:23 | 54.29538 | -2.48369 | 24031 ft | 459 kts | 336° |
| 2026-05-07 19:24 | 54.32498 | -2.50432 | 24020 ft | 460 kts | 336° |
| 2026-05-07 19:24 | 54.35472 | -2.52509 | 24025 ft | 460 kts | 336° |
| 2026-05-07 19:24 | 54.38449 | -2.54590 | 24027 ft | 461 kts | 336° |
| 2026-05-07 19:24 | 54.41385 | -2.56646 | 24011 ft | 461 kts | 336° |
| 2026-05-07 19:25 | 54.44355 | -2.58729 | 24017 ft | 461 kts | 336° |
| 2026-05-07 19:25 | 54.47323 | -2.60814 | 24024 ft | 461 kts | 335° |
| 2026-05-07 19:25 | 54.50296 | -2.62905 | 24010 ft | 461 kts | 335° |
| 2026-05-07 19:25 | 54.53267 | -2.65005 | 24004 ft | 461 kts | 335° |
| 2026-05-07 19:26 | 54.56231 | -2.67110 | 24011 ft | 461 kts | 335° |
| 2026-05-07 19:26 | 54.59197 | -2.69218 | 24032 ft | 461 kts | 335° |
| 2026-05-07 19:26 | 54.62159 | -2.71327 | 24001 ft | 460 kts | 335° |
| 2026-05-07 19:26 | 54.65117 | -2.73437 | 24015 ft | 459 kts | 335° |
| 2026-05-07 19:27 | 54.68064 | -2.75542 | 24014 ft | 458 kts | 335° |
| 2026-05-07 19:27 | 54.71014 | -2.77650 | 24004 ft | 458 kts | 335° |
| 2026-05-07 19:27 | 54.73964 | -2.79758 | 24005 ft | 458 kts | 335° |
| 2026-05-07 19:27 | 54.76909 | -2.81861 | 23997 ft | 459 kts | 335° |
| 2026-05-07 19:28 | 54.79885 | -2.83991 | 24403 ft | 464 kts | 335° |
| 2026-05-07 19:28 | 54.82838 | -2.86106 | 24949 ft | 466 kts | 335° |
| 2026-05-07 19:28 | 54.85852 | -2.88270 | 25468 ft | 470 kts | 335° |
| 2026-05-07 19:28 | 54.88895 | -2.90460 | 25934 ft | 475 kts | 335° |
| 2026-05-07 19:29 | 54.91967 | -2.92685 | 26390 ft | 480 kts | 335° |
| 2026-05-07 19:29 | 54.95072 | -2.94943 | 26872 ft | 484 kts | 335° |
| 2026-05-07 19:29 | 54.98195 | -2.97218 | 27351 ft | 488 kts | 335° |
| 2026-05-07 19:29 | 55.01355 | -2.99524 | 27717 ft | 494 kts | 335° |
| 2026-05-07 19:30 | 55.04502 | -3.01823 | 28117 ft | 499 kts | 335° |
| 2026-05-07 19:30 | 55.07712 | -3.04169 | 28600 ft | 502 kts | 335° |
| 2026-05-07 19:30 | 55.10940 | -3.06534 | 29060 ft | 505 kts | 335° |
| 2026-05-07 19:30 | 55.14196 | -3.08917 | 29473 ft | 508 kts | 335° |
| 2026-05-07 19:31 | 55.17477 | -3.11286 | 29954 ft | 510 kts | 335° |
| 2026-05-07 19:31 | 55.20755 | -3.13675 | 30468 ft | 509 kts | 335° |
| 2026-05-07 19:31 | 55.24015 | -3.16066 | 30960 ft | 508 kts | 335° |
| 2026-05-07 19:31 | 55.27291 | -3.18477 | 31273 ft | 512 kts | 335° |
| 2026-05-07 19:32 | 55.30577 | -3.20897 | 31691 ft | 512 kts | 335° |
| 2026-05-07 19:32 | 55.33816 | -3.23307 | 32216 ft | 510 kts | 334° |
| 2026-05-07 19:32 | 55.37072 | -3.25746 | 32694 ft | 509 kts | 334° |
| 2026-05-07 19:32 | 55.40335 | -3.28187 | 33114 ft | 509 kts | 335° |
| 2026-05-07 19:33 | 55.43611 | -3.30620 | 33525 ft | 509 kts | 335° |
| 2026-05-07 19:33 | 55.46875 | -3.33042 | 33950 ft | 509 kts | 335° |
| 2026-05-07 19:33 | 55.50154 | -3.35378 | 34460 ft | 506 kts | 338° |
| 2026-05-07 19:33 | 55.53523 | -3.37205 | 34855 ft | 506 kts | 343° |
| 2026-05-07 19:34 | 55.56942 | -3.38745 | 35003 ft | 510 kts | 343° |
| 2026-05-07 19:34 | 55.60357 | -3.40278 | 34967 ft | 512 kts | 343° |
| 2026-05-07 19:34 | 55.67245 | -3.43433 | 34946 ft | 507 kts | 343° |
| 2026-05-07 19:35 | 55.74049 | -3.46630 | 34961 ft | 505 kts | 342° |
| 2026-05-07 19:35 | 55.80832 | -3.49852 | 34948 ft | 505 kts | 342° |
| 2026-05-07 19:36 | 55.87631 | -3.53091 | 34947 ft | 506 kts | 342° |
| 2026-05-07 19:36 | 55.94436 | -3.56339 | 34948 ft | 507 kts | 342° |
| 2026-05-07 19:37 | 56.01210 | -3.59582 | 34948 ft | 507 kts | 342° |
| 2026-05-07 19:37 | 56.08042 | -3.62867 | 34949 ft | 508 kts | 342° |
| 2026-05-07 19:38 | 56.14880 | -3.66166 | 34942 ft | 509 kts | 342° |
| 2026-05-07 19:38 | 56.21728 | -3.69482 | 34944 ft | 509 kts | 342° |
| 2026-05-07 19:39 | 56.28586 | -3.72830 | 34942 ft | 510 kts | 342° |
| 2026-05-07 19:39 | 56.35436 | -3.76190 | 34938 ft | 510 kts | 342° |
| 2026-05-07 19:40 | 56.42246 | -3.79542 | 34939 ft | 510 kts | 342° |
| 2026-05-07 19:40 | 56.49094 | -3.82924 | 34935 ft | 510 kts | 342° |
| 2026-05-07 19:41 | 56.55938 | -3.86316 | 34941 ft | 510 kts | 341° |
| 2026-05-07 19:41 | 56.62788 | -3.89726 | 34932 ft | 510 kts | 341° |
| 2026-05-07 19:42 | 56.69592 | -3.93122 | 34913 ft | 510 kts | 341° |
| 2026-05-07 19:42 | 56.76436 | -3.96554 | 34913 ft | 510 kts | 341° |
| 2026-05-07 19:43 | 56.83281 | -3.99998 | 34921 ft | 510 kts | 341° |
| 2026-05-07 19:43 | 56.90124 | -4.03456 | 34908 ft | 510 kts | 341° |
| 2026-05-07 19:44 | 56.96972 | -4.06928 | 34906 ft | 510 kts | 341° |
| 2026-05-07 19:44 | 57.03761 | -4.10385 | 34912 ft | 509 kts | 341° |
| 2026-05-07 19:45 | 57.10591 | -4.13934 | 34931 ft | 509 kts | 338° |
| 2026-05-07 19:45 | 57.17033 | -4.19094 | 34908 ft | 502 kts | 327° |
| 2026-05-07 19:46 | 57.23189 | -4.25188 | 34885 ft | 502 kts | 328° |
| 2026-05-07 19:46 | 57.29349 | -4.31183 | 34874 ft | 502 kts | 328° |
| 2026-05-07 19:47 | 57.35543 | -4.37177 | 34872 ft | 502 kts | 328° |
| 2026-05-07 19:47 | 57.41734 | -4.43181 | 34871 ft | 502 kts | 328° |
| 2026-05-07 19:48 | 57.47924 | -4.49210 | 34871 ft | 501 kts | 327° |
| 2026-05-07 19:48 | 57.54061 | -4.55215 | 34867 ft | 501 kts | 327° |
| 2026-05-07 19:49 | 57.60233 | -4.61279 | 34862 ft | 502 kts | 327° |
| 2026-05-07 19:49 | 57.66420 | -4.67383 | 34857 ft | 502 kts | 327° |
| 2026-05-07 19:50 | 57.71559 | -4.72467 | 34856 ft | 502 kts | 327° |
| 2026-05-07 19:50 | 57.78743 | -4.79606 | 34839 ft | 502 kts | 327° |
| 2026-05-07 19:51 | 57.83906 | -4.84756 | 34870 ft | 501 kts | 327° |
| 2026-05-07 19:51 | 57.90022 | -4.90882 | 34853 ft | 501 kts | 327° |
| 2026-05-07 19:52 | 57.96198 | -4.97083 | 34828 ft | 503 kts | 327° |
| 2026-05-07 19:52 | 58.02381 | -5.03320 | 34825 ft | 505 kts | 327° |
| 2026-05-07 19:53 | 58.08572 | -5.09593 | 34827 ft | 505 kts | 327° |
| 2026-05-07 19:53 | 58.14736 | -5.15863 | 34820 ft | 506 kts | 326° |
| 2026-05-07 19:54 | 58.20941 | -5.22197 | 34808 ft | 506 kts | 326° |
| 2026-05-07 19:54 | 58.27145 | -5.28555 | 34804 ft | 506 kts | 326° |
| 2026-05-07 19:55 | 58.33333 | -5.34922 | 34797 ft | 505 kts | 326° |
| 2026-05-07 19:55 | 58.39511 | -5.41306 | 34809 ft | 505 kts | 326° |
| 2026-05-07 19:56 | 58.45683 | -5.47711 | 34798 ft | 505 kts | 326° |
| 2026-05-07 19:56 | 58.51859 | -5.54144 | 34778 ft | 504 kts | 326° |
| 2026-05-07 19:57 | 58.57976 | -5.60542 | 34773 ft | 504 kts | 326° |
| 2026-05-07 19:57 | 58.64132 | -5.67006 | 34792 ft | 504 kts | 325° |
| 2026-05-07 19:58 | 58.70296 | -5.73506 | 34781 ft | 505 kts | 325° |
| 2026-05-07 19:58 | 58.76467 | -5.80040 | 34766 ft | 505 kts | 325° |
| 2026-05-07 19:59 | 58.82623 | -5.86584 | 34749 ft | 506 kts | 325° |
| 2026-05-07 19:59 | 58.88784 | -5.93160 | 34752 ft | 506 kts | 325° |
| 2026-05-07 20:00 | 58.94905 | -5.99720 | 34759 ft | 506 kts | 325° |
| 2026-05-07 20:00 | 59.01066 | -6.06351 | 34747 ft | 506 kts | 324° |
| 2026-05-07 20:01 | 59.07228 | -6.13011 | 34746 ft | 506 kts | 324° |
| 2026-05-07 20:01 | 59.13380 | -6.19686 | 34725 ft | 506 kts | 324° |
| 2026-05-07 20:02 | 59.19610 | -6.26151 | 34729 ft | 512 kts | 332° |
| 2026-05-07 20:02 | 59.26501 | -6.29849 | 34730 ft | 523 kts | 347° |
| 2026-05-07 20:03 | 59.33800 | -6.30700 | 34724 ft | 526 kts | 354° |